sensor_id;sensor_type;location;lat;lon;timestamp;pressure;altitude;pressure_sealevel;temperature;humidity
61537;BME280;48695;53.480;-6.300;2023-06-04T00:01:34;101952.91;;;18.28;33.07
61537;BME280;48695;53.480;-6.300;2023-06-04T00:03:59;101953.06;;;18.23;33.14
61537;BME280;48695;53.480;-6.300;2023-06-04T00:06:24;101952.38;;;18.18;33.62
61537;BME280;48695;53.480;-6.300;2023-06-04T00:08:49;101950.75;;;18.14;33.31
61537;BME280;48695;53.480;-6.300;2023-06-04T00:11:15;101953.53;;;18.09;33.23
61537;BME280;48695;53.480;-6.300;2023-06-04T00:13:40;101945.78;;;18.05;33.90
61537;BME280;48695;53.480;-6.300;2023-06-04T00:16:05;101952.09;;;18.01;33.57
61537;BME280;48695;53.480;-6.300;2023-06-04T00:18:31;101942.75;;;17.91;33.97
61537;BME280;48695;53.480;-6.300;2023-06-04T00:20:56;101952.47;;;17.90;33.95
61537;BME280;48695;53.480;-6.300;2023-06-04T00:23:21;101951.69;;;17.86;33.62
61537;BME280;48695;53.480;-6.300;2023-06-04T00:25:46;101953.63;;;17.81;33.87
61537;BME280;48695;53.480;-6.300;2023-06-04T00:28:12;101951.97;;;17.77;34.21
61537;BME280;48695;53.480;-6.300;2023-06-04T00:30:37;101949.50;;;17.73;34.06
61537;BME280;48695;53.480;-6.300;2023-06-04T00:33:02;101946.97;;;17.68;34.27
61537;BME280;48695;53.480;-6.300;2023-06-04T00:35:27;101946.31;;;17.61;34.05
61537;BME280;48695;53.480;-6.300;2023-06-04T00:37:53;101954.31;;;17.58;34.40
61537;BME280;48695;53.480;-6.300;2023-06-04T00:40:18;101952.72;;;17.53;34.46
61537;BME280;48695;53.480;-6.300;2023-06-04T00:42:43;101949.38;;;17.48;34.41
61537;BME280;48695;53.480;-6.300;2023-06-04T00:45:10;101950.41;;;17.44;34.22
61537;BME280;48695;53.480;-6.300;2023-06-04T00:47:35;101954.06;;;17.38;34.51
61537;BME280;48695;53.480;-6.300;2023-06-04T00:50:00;101951.56;;;17.33;34.48
61537;BME280;48695;53.480;-6.300;2023-06-04T00:52:26;101943.84;;;17.27;34.59
61537;BME280;48695;53.480;-6.300;2023-06-04T00:54:51;101950.13;;;17.23;34.29
61537;BME280;48695;53.480;-6.300;2023-06-04T00:57:17;101946.75;;;17.18;34.38
61537;BME280;48695;53.480;-6.300;2023-06-04T00:59:42;101942.50;;;17.14;34.50
61537;BME280;48695;53.480;-6.300;2023-06-04T01:02:14;101939.16;;;17.09;34.56
61537;BME280;48695;53.480;-6.300;2023-06-04T01:07:09;101943.78;;;17.01;34.74
61537;BME280;48695;53.480;-6.300;2023-06-04T01:09:35;101943.97;;;16.95;34.92
61537;BME280;48695;53.480;-6.300;2023-06-04T01:12:03;101942.31;;;16.91;34.63
61537;BME280;48695;53.480;-6.300;2023-06-04T01:14:29;101944.22;;;16.85;35.03
61537;BME280;48695;53.480;-6.300;2023-06-04T01:22:10;101941.13;;;16.71;34.89
61537;BME280;48695;53.480;-6.300;2023-06-04T01:24:36;101943.00;;;16.66;35.17
61537;BME280;48695;53.480;-6.300;2023-06-04T01:27:03;101940.47;;;16.63;35.21
61537;BME280;48695;53.480;-6.300;2023-06-04T01:29:30;101941.44;;;16.59;35.00
61537;BME280;48695;53.480;-6.300;2023-06-04T01:31:57;101943.34;;;16.54;35.52
61537;BME280;48695;53.480;-6.300;2023-06-04T01:34:23;101932.88;;;16.51;35.48
61537;BME280;48695;53.480;-6.300;2023-06-04T01:36:48;101936.50;;;16.47;35.18
61537;BME280;48695;53.480;-6.300;2023-06-04T01:39:13;101934.88;;;16.43;35.15
61537;BME280;48695;53.480;-6.300;2023-06-04T01:41:39;101927.94;;;16.39;35.64
61537;BME280;48695;53.480;-6.300;2023-06-04T01:44:04;101940.28;;;16.37;35.56
61537;BME280;48695;53.480;-6.300;2023-06-04T01:46:29;101936.91;;;16.31;35.47
61537;BME280;48695;53.480;-6.300;2023-06-04T01:48:54;101934.38;;;16.27;35.23
61537;BME280;48695;53.480;-6.300;2023-06-04T01:51:20;101931.91;;;16.22;35.51
61537;BME280;48695;53.480;-6.300;2023-06-04T01:53:45;101926.69;;;16.19;35.91
61537;BME280;48695;53.480;-6.300;2023-06-04T01:56:10;101929.47;;;16.15;35.64
61537;BME280;48695;53.480;-6.300;2023-06-04T01:58:36;101929.53;;;16.12;35.78
61537;BME280;48695;53.480;-6.300;2023-06-04T02:01:02;101927.00;;;16.08;35.72
61537;BME280;48695;53.480;-6.300;2023-06-04T02:03:28;101927.09;;;16.04;35.97
61537;BME280;48695;53.480;-6.300;2023-06-04T02:05:57;101929.00;;;15.99;35.92
61537;BME280;48695;53.480;-6.300;2023-06-04T02:08:22;101924.66;;;15.96;35.90
61537;BME280;48695;53.480;-6.300;2023-06-04T02:10:50;101929.16;;;15.93;35.85
61537;BME280;48695;53.480;-6.300;2023-06-04T02:13:15;101931.91;;;15.88;36.15
61537;BME280;48695;53.480;-6.300;2023-06-04T02:15:41;101925.84;;;15.85;36.35
61537;BME280;48695;53.480;-6.300;2023-06-04T02:18:15;101928.56;;;15.81;36.10
61537;BME280;48695;53.480;-6.300;2023-06-04T02:20:42;101929.53;;;15.77;36.38
61537;BME280;48695;53.480;-6.300;2023-06-04T02:23:08;101933.16;;;15.73;36.48
61537;BME280;48695;53.480;-6.300;2023-06-04T02:25:33;101931.47;;;15.69;36.45
61537;BME280;48695;53.480;-6.300;2023-06-04T02:27:58;101929.81;;;15.65;36.29
61537;BME280;48695;53.480;-6.300;2023-06-04T02:30:23;101934.28;;;15.62;36.22
61537;BME280;48695;53.480;-6.300;2023-06-04T02:32:48;101939.59;;;15.58;36.38
61537;BME280;48695;53.480;-6.300;2023-06-04T02:35:16;101933.53;;;15.55;36.23
61537;BME280;48695;53.480;-6.300;2023-06-04T02:37:41;101929.25;;;15.51;36.67
61537;BME280;48695;53.480;-6.300;2023-06-04T02:40:06;101937.22;;;15.48;36.62
61537;BME280;48695;53.480;-6.300;2023-06-04T02:42:32;101937.28;;;15.45;36.72
61537;BME280;48695;53.480;-6.300;2023-06-04T02:44:57;101940.88;;;15.41;36.87
61537;BME280;48695;53.480;-6.300;2023-06-04T02:47:22;101933.91;;;15.40;36.86
61537;BME280;48695;53.480;-6.300;2023-06-04T02:49:48;101941.03;;;15.36;36.66
61537;BME280;48695;53.480;-6.300;2023-06-04T02:52:13;101937.59;;;15.32;37.13
61537;BME280;48695;53.480;-6.300;2023-06-04T02:54:38;101942.00;;;15.30;37.10
61537;BME280;48695;53.480;-6.300;2023-06-04T02:57:03;101930.69;;;15.27;36.94
61537;BME280;48695;53.480;-6.300;2023-06-04T02:59:29;101935.97;;;15.25;36.69
61537;BME280;48695;53.480;-6.300;2023-06-04T03:01:54;101934.34;;;15.21;36.96
61537;BME280;48695;53.480;-6.300;2023-06-04T03:04:20;101937.88;;;15.19;37.08
61537;BME280;48695;53.480;-6.300;2023-06-04T03:06:45;101936.19;;;15.16;37.09
61537;BME280;48695;53.480;-6.300;2023-06-04T03:09:11;101937.97;;;15.14;37.29
61537;BME280;48695;53.480;-6.300;2023-06-04T03:11:36;101934.53;;;15.12;37.27
61537;BME280;48695;53.480;-6.300;2023-06-04T03:14:02;101934.56;;;15.11;37.09
61537;BME280;48695;53.480;-6.300;2023-06-04T03:16:27;101927.59;;;15.08;37.10
61537;BME280;48695;53.480;-6.300;2023-06-04T03:18:52;101927.66;;;15.05;37.30
61537;BME280;48695;53.480;-6.300;2023-06-04T03:21:17;101934.72;;;15.03;37.41
61537;BME280;48695;53.480;-6.300;2023-06-04T03:23:43;101929.50;;;15.00;37.58
61537;BME280;48695;53.480;-6.300;2023-06-04T03:26:08;101925.16;;;14.99;37.26
61537;BME280;48695;53.480;-6.300;2023-06-04T03:28:33;101927.84;;;14.97;37.79
61537;BME280;48695;53.480;-6.300;2023-06-04T03:30:59;101930.53;;;14.94;37.49
61537;BME280;48695;53.480;-6.300;2023-06-04T03:33:24;101927.94;;;14.93;37.72
61537;BME280;48695;53.480;-6.300;2023-06-04T03:35:50;101925.34;;;14.90;37.89
61537;BME280;48695;53.480;-6.300;2023-06-04T03:38:16;101923.63;;;14.89;37.79
61537;BME280;48695;53.480;-6.300;2023-06-04T03:40:41;101926.34;;;14.86;37.65
61537;BME280;48695;53.480;-6.300;2023-06-04T03:43:07;101926.38;;;14.83;37.63
61537;BME280;48695;53.480;-6.300;2023-06-04T03:45:32;101933.47;;;14.81;37.68
61537;BME280;48695;53.480;-6.300;2023-06-04T03:47:57;101934.38;;;14.78;38.02
61537;BME280;48695;53.480;-6.300;2023-06-04T03:50:23;101930.06;;;14.75;37.91
61537;BME280;48695;53.480;-6.300;2023-06-04T03:52:48;101929.19;;;14.73;38.11
61537;BME280;48695;53.480;-6.300;2023-06-04T03:55:14;101922.25;;;14.69;38.01
61537;BME280;48695;53.480;-6.300;2023-06-04T03:57:39;101929.28;;;14.69;37.85
61537;BME280;48695;53.480;-6.300;2023-06-04T04:00:05;101924.97;;;14.66;37.85
61537;BME280;48695;53.480;-6.300;2023-06-04T04:02:31;101921.50;;;14.64;38.16
61537;BME280;48695;53.480;-6.300;2023-06-04T04:04:56;101925.94;;;14.62;38.12
61537;BME280;48695;53.480;-6.300;2023-06-04T04:07:22;101929.47;;;14.61;38.34
61537;BME280;48695;53.480;-6.300;2023-06-04T04:09:47;101924.22;;;14.60;38.46
61537;BME280;48695;53.480;-6.300;2023-06-04T04:12:13;101925.16;;;14.57;38.64
61537;BME280;48695;53.480;-6.300;2023-06-04T04:14:38;101920.78;;;14.56;38.79
61537;BME280;48695;53.480;-6.300;2023-06-04T04:17:03;101919.94;;;14.54;38.75
61537;BME280;48695;53.480;-6.300;2023-06-04T04:19:29;101916.44;;;14.53;38.74
61537;BME280;48695;53.480;-6.300;2023-06-04T04:21:54;101919.97;;;14.52;38.71
61537;BME280;48695;53.480;-6.300;2023-06-04T04:24:23;101920.94;;;14.50;38.96
61537;BME280;48695;53.480;-6.300;2023-06-04T04:26:48;101926.19;;;14.50;38.92
61537;BME280;48695;53.480;-6.300;2023-06-04T04:29:18;101930.59;;;14.48;39.00
61537;BME280;48695;53.480;-6.300;2023-06-04T04:31:47;101928.81;;;14.47;38.65
61537;BME280;48695;53.480;-6.300;2023-06-04T04:34:13;101934.97;;;14.46;39.01
61537;BME280;48695;53.480;-6.300;2023-06-04T04:36:40;101931.50;;;14.45;38.85
61537;BME280;48695;53.480;-6.300;2023-06-04T04:39:05;101934.13;;;14.45;38.71
61537;BME280;48695;53.480;-6.300;2023-06-04T04:41:31;101942.00;;;14.45;39.16
61537;BME280;48695;53.480;-6.300;2023-06-04T04:44:02;101935.88;;;14.45;38.94
61537;BME280;48695;53.480;-6.300;2023-06-04T04:46:27;101940.25;;;14.44;39.31
61537;BME280;48695;53.480;-6.300;2023-06-04T04:48:52;101939.38;;;14.44;39.30
61537;BME280;48695;53.480;-6.300;2023-06-04T04:51:18;101938.53;;;14.43;38.94
61537;BME280;48695;53.480;-6.300;2023-06-04T04:53:43;101939.38;;;14.44;39.33
61537;BME280;48695;53.480;-6.300;2023-06-04T04:56:08;101938.50;;;14.45;39.45
61537;BME280;48695;53.480;-6.300;2023-06-04T04:58:33;101942.00;;;14.44;39.45
61537;BME280;48695;53.480;-6.300;2023-06-04T05:00:59;101950.75;;;14.44;39.28
61537;BME280;48695;53.480;-6.300;2023-06-04T05:03:24;101949.00;;;14.46;39.24
61537;BME280;48695;53.480;-6.300;2023-06-04T05:05:49;101933.22;;;14.46;39.09
61537;BME280;48695;53.480;-6.300;2023-06-04T05:08:15;101943.72;;;14.48;39.08
61537;BME280;48695;53.480;-6.300;2023-06-04T05:10:40;101937.56;;;14.49;39.44
61537;BME280;48695;53.480;-6.300;2023-06-04T05:13:05;101939.31;;;14.50;39.51
61537;BME280;48695;53.480;-6.300;2023-06-04T05:15:31;101942.78;;;14.52;39.19
61537;BME280;48695;53.480;-6.300;2023-06-04T05:17:56;101941.00;;;14.52;39.56
61537;BME280;48695;53.480;-6.300;2023-06-04T05:20:23;101940.09;;;14.55;39.36
61537;BME280;48695;53.480;-6.300;2023-06-04T05:22:48;101947.03;;;14.58;39.39
61537;BME280;48695;53.480;-6.300;2023-06-04T05:25:14;101939.13;;;14.59;39.24
61537;BME280;48695;53.480;-6.300;2023-06-04T05:27:39;101947.88;;;14.61;39.62
61537;BME280;48695;53.480;-6.300;2023-06-04T05:30:05;101939.94;;;14.63;39.41
61537;BME280;48695;53.480;-6.300;2023-06-04T05:32:31;101946.00;;;14.66;39.60
61537;BME280;48695;53.480;-6.300;2023-06-04T05:34:57;101948.56;;;14.69;39.59
61537;BME280;48695;53.480;-6.300;2023-06-04T05:37:24;101954.69;;;14.71;39.50
61537;BME280;48695;53.480;-6.300;2023-06-04T05:39:49;101952.81;;;14.76;39.63
61537;BME280;48695;53.480;-6.300;2023-06-04T05:42:15;101958.88;;;14.80;39.49
61537;BME280;48695;53.480;-6.300;2023-06-04T05:44:40;101960.53;;;14.84;39.59
61537;BME280;48695;53.480;-6.300;2023-06-04T05:47:06;101956.09;;;14.88;39.50
61537;BME280;48695;53.480;-6.300;2023-06-04T05:49:33;101962.16;;;14.91;39.20
61537;BME280;48695;53.480;-6.300;2023-06-04T05:51:59;101962.94;;;14.95;39.47
61537;BME280;48695;53.480;-6.300;2023-06-04T05:54:24;101964.63;;;14.99;39.16
61537;BME280;48695;53.480;-6.300;2023-06-04T05:56:49;101963.63;;;15.04;38.91
61537;BME280;48695;53.480;-6.300;2023-06-04T05:59:14;101955.63;;;15.09;38.85
61537;BME280;48695;53.480;-6.300;2023-06-04T06:01:40;101962.56;;;15.13;39.11
61537;BME280;48695;53.480;-6.300;2023-06-04T06:04:05;101960.66;;;15.20;38.85
61537;BME280;48695;53.480;-6.300;2023-06-04T06:06:30;101967.63;;;15.22;39.14
61537;BME280;48695;53.480;-6.300;2023-06-04T06:08:55;101963.13;;;15.27;38.83
61537;BME280;48695;53.480;-6.300;2023-06-04T06:11:21;101972.72;;;15.31;39.03
61537;BME280;48695;53.480;-6.300;2023-06-04T06:13:46;101978.72;;;15.37;38.93
61537;BME280;48695;53.480;-6.300;2023-06-04T06:16:12;101975.97;;;15.43;38.85
61537;BME280;48695;53.480;-6.300;2023-06-04T06:18:37;101979.34;;;15.48;39.13
61537;BME280;48695;53.480;-6.300;2023-06-04T06:21:02;101982.75;;;15.53;39.07
61537;BME280;48695;53.480;-6.300;2023-06-04T06:23:27;101973.88;;;15.57;38.81
61537;BME280;48695;53.480;-6.300;2023-06-04T06:25:53;101972.00;;;15.62;38.72
61537;BME280;48695;53.480;-6.300;2023-06-04T06:28:18;101976.28;;;15.68;38.77
61537;BME280;48695;53.480;-6.300;2023-06-04T06:30:43;101978.81;;;15.72;39.19
61537;BME280;48695;53.480;-6.300;2023-06-04T06:33:09;101976.94;;;15.77;39.17
61537;BME280;48695;53.480;-6.300;2023-06-04T06:35:34;101971.53;;;15.83;38.80
61537;BME280;48695;53.480;-6.300;2023-06-04T06:38:00;101980.19;;;15.89;39.10
61537;BME280;48695;53.480;-6.300;2023-06-04T06:40:25;101981.84;;;15.93;39.18
61537;BME280;48695;53.480;-6.300;2023-06-04T06:42:50;101986.09;;;15.98;39.33
61537;BME280;48695;53.480;-6.300;2023-06-04T06:45:16;101979.81;;;16.04;39.72
61537;BME280;48695;53.480;-6.300;2023-06-04T06:47:41;101977.91;;;16.09;39.76
61537;BME280;48695;53.480;-6.300;2023-06-04T06:50:07;101981.31;;;16.14;39.38
61537;BME280;48695;53.480;-6.300;2023-06-04T06:52:32;101975.00;;;16.20;39.56
61537;BME280;48695;53.480;-6.300;2023-06-04T06:54:57;101976.63;;;16.25;40.11
61537;BME280;48695;53.480;-6.300;2023-06-04T06:57:23;101982.63;;;16.30;40.09
61537;BME280;48695;53.480;-6.300;2023-06-04T06:59:48;101974.56;;;16.37;39.89
61537;BME280;48695;53.480;-6.300;2023-06-04T07:02:16;101978.78;;;16.42;39.79
61537;BME280;48695;53.480;-6.300;2023-06-04T07:04:41;101978.69;;;16.47;40.47
61537;BME280;48695;53.480;-6.300;2023-06-04T07:07:07;101973.25;;;16.53;40.46
61537;BME280;48695;53.480;-6.300;2023-06-04T07:09:32;101976.63;;;16.58;40.43
61537;BME280;48695;53.480;-6.300;2023-06-04T07:11:57;101971.19;;;16.64;40.21
61537;BME280;48695;53.480;-6.300;2023-06-04T07:14:23;101971.00;;;16.70;40.58
61537;BME280;48695;53.480;-6.300;2023-06-04T07:16:48;101974.41;;;16.75;40.29
61537;BME280;48695;53.480;-6.300;2023-06-04T07:19:13;101976.94;;;16.80;40.23
61537;BME280;48695;53.480;-6.300;2023-06-04T07:21:38;101982.88;;;16.86;40.50
61537;BME280;48695;53.480;-6.300;2023-06-04T07:24:03;101982.72;;;16.93;40.75
61537;BME280;48695;53.480;-6.300;2023-06-04T07:26:29;101986.09;;;16.98;40.82
61537;BME280;48695;53.480;-6.300;2023-06-04T07:28:55;101985.94;;;17.04;40.95
61537;BME280;48695;53.480;-6.300;2023-06-04T07:31:21;101983.97;;;17.10;40.93
61537;BME280;48695;53.480;-6.300;2023-06-04T07:33:47;101983.84;;;17.15;40.58
61537;BME280;48695;53.480;-6.300;2023-06-04T07:36:12;101983.63;;;17.21;40.97
61537;BME280;48695;53.480;-6.300;2023-06-04T07:38:38;101992.28;;;17.26;41.15
61537;BME280;48695;53.480;-6.300;2023-06-04T07:41:03;101989.47;;;17.32;40.93
61537;BME280;48695;53.480;-6.300;2023-06-04T07:43:28;101994.53;;;17.38;40.88
61537;BME280;48695;53.480;-6.300;2023-06-04T07:45:54;101937.31;;;17.11;40.56
61537;BME280;48695;53.480;-6.300;2023-06-04T07:48:19;101995.97;;;17.50;40.26
61537;BME280;48695;53.480;-6.300;2023-06-04T07:50:44;102000.19;;;17.56;40.81
61537;BME280;48695;53.480;-6.300;2023-06-04T07:53:09;101995.63;;;17.61;40.93
61537;BME280;48695;53.480;-6.300;2023-06-04T07:55:35;101999.78;;;17.68;41.06
61537;BME280;48695;53.480;-6.300;2023-06-04T07:58:00;102003.19;;;17.73;40.61
61537;BME280;48695;53.480;-6.300;2023-06-04T08:00:25;101998.59;;;17.80;39.59
61537;BME280;48695;53.480;-6.300;2023-06-04T08:02:51;102000.97;;;17.87;40.21
61537;BME280;48695;53.480;-6.300;2023-06-04T08:05:17;102009.63;;;17.93;40.32
61537;BME280;48695;53.480;-6.300;2023-06-04T08:07:42;102005.03;;;17.98;40.54
61537;BME280;48695;53.480;-6.300;2023-06-04T08:10:08;101998.66;;;18.05;39.96
61537;BME280;48695;53.480;-6.300;2023-06-04T08:12:34;102007.31;;;18.10;40.49
61537;BME280;48695;53.480;-6.300;2023-06-04T08:14:59;101998.31;;;18.15;40.79
61537;BME280;48695;53.480;-6.300;2023-06-04T08:17:24;101994.59;;;18.21;40.69
61537;BME280;48695;53.480;-6.300;2023-06-04T08:19:50;101993.50;;;18.27;40.95
61537;BME280;48695;53.480;-6.300;2023-06-04T08:22:15;101991.56;;;18.32;40.46
61537;BME280;48695;53.480;-6.300;2023-06-04T08:24:40;102002.78;;;18.38;39.71
61537;BME280;48695;53.480;-6.300;2023-06-04T08:27:05;101999.94;;;18.45;40.04
61537;BME280;48695;53.480;-6.300;2023-06-04T08:29:33;101993.59;;;18.50;39.99
61537;BME280;48695;53.480;-6.300;2023-06-04T08:31:58;101936.28;;;18.24;40.39
61537;BME280;48695;53.480;-6.300;2023-06-04T08:34:23;101992.28;;;18.62;40.23
61537;BME280;48695;53.480;-6.300;2023-06-04T08:36:49;101990.22;;;18.70;40.13
61537;BME280;48695;53.480;-6.300;2023-06-04T08:39:14;101994.41;;;18.77;39.92
61537;BME280;48695;53.480;-6.300;2023-06-04T08:44:05;101986.94;;;18.88;40.49
61537;BME280;48695;53.480;-6.300;2023-06-04T08:46:34;101992.00;;;18.95;40.34
61537;BME280;48695;53.480;-6.300;2023-06-04T08:49:04;102002.34;;;19.01;40.30
61537;BME280;48695;53.480;-6.300;2023-06-04T08:51:32;102006.50;;;19.08;40.25
61537;BME280;48695;53.480;-6.300;2023-06-04T08:53:58;102004.56;;;19.13;40.48
61537;BME280;48695;53.480;-6.300;2023-06-04T08:56:24;102012.25;;;19.19;39.91
61537;BME280;48695;53.480;-6.300;2023-06-04T08:58:49;102006.72;;;19.25;39.71
61537;BME280;48695;53.480;-6.300;2023-06-04T09:01:15;102002.06;;;19.32;39.78
61537;BME280;48695;53.480;-6.300;2023-06-04T09:03:40;102004.56;;;19.36;39.17
61537;BME280;48695;53.480;-6.300;2023-06-04T09:06:06;102000.72;;;19.43;39.45
61537;BME280;48695;53.480;-6.300;2023-06-04T09:08:33;101999.69;;;19.48;39.46
61537;BME280;48695;53.480;-6.300;2023-06-04T09:10:59;102007.41;;;19.54;39.56
61537;BME280;48695;53.480;-6.300;2023-06-04T09:13:28;102005.44;;;19.59;39.27
61537;BME280;48695;53.480;-6.300;2023-06-04T09:16:02;102007.94;;;19.63;39.96
61537;BME280;48695;53.480;-6.300;2023-06-04T09:18:28;102007.69;;;19.69;38.66
61537;BME280;48695;53.480;-6.300;2023-06-04T09:21:03;102010.16;;;19.74;39.72
61537;BME280;48695;53.480;-6.300;2023-06-04T09:23:28;102014.34;;;19.80;39.46
61537;BME280;48695;53.480;-6.300;2023-06-04T09:25:54;102011.38;;;19.87;39.52
61537;BME280;48695;53.480;-6.300;2023-06-04T09:28:20;102010.88;;;20.00;39.14
61537;BME280;48695;53.480;-6.300;2023-06-04T09:30:52;102012.78;;;20.18;39.12
61537;BME280;48695;53.480;-6.300;2023-06-04T09:33:17;102013.44;;;20.43;39.33
61537;BME280;48695;53.480;-6.300;2023-06-04T09:35:52;102010.56;;;20.70;39.33
61537;BME280;48695;53.480;-6.300;2023-06-04T09:38:17;102015.44;;;20.99;38.90
61537;BME280;48695;53.480;-6.300;2023-06-04T09:40:43;102013.16;;;21.30;38.86
61537;BME280;48695;53.480;-6.300;2023-06-04T09:43:08;102020.56;;;21.61;38.68
61537;BME280;48695;53.480;-6.300;2023-06-04T09:45:35;102015.38;;;21.94;38.91
61537;BME280;48695;53.480;-6.300;2023-06-04T09:48:01;102011.16;;;22.26;38.63
61537;BME280;48695;53.480;-6.300;2023-06-04T09:50:30;102012.16;;;22.58;38.58
61537;BME280;48695;53.480;-6.300;2023-06-04T09:52:57;102004.22;;;22.91;38.31
61537;BME280;48695;53.480;-6.300;2023-06-04T09:55:22;102020.25;;;23.23;38.25
61537;BME280;48695;53.480;-6.300;2023-06-04T09:57:48;102013.22;;;23.53;37.75
61537;BME280;48695;53.480;-6.300;2023-06-04T10:00:17;102018.56;;;23.85;37.55
61537;BME280;48695;53.480;-6.300;2023-06-04T10:02:43;102022.97;;;24.16;37.46
61537;BME280;48695;53.480;-6.300;2023-06-04T10:05:09;102022.81;;;24.49;37.94
61537;BME280;48695;53.480;-6.300;2023-06-04T10:07:37;102018.06;;;24.83;37.46
61537;BME280;48695;53.480;-6.300;2023-06-04T10:10:03;102017.81;;;25.16;37.46
61537;BME280;48695;53.480;-6.300;2023-06-04T10:12:30;102030.75;;;25.51;36.85
61537;BME280;48695;53.480;-6.300;2023-06-04T10:14:59;102025.88;;;25.84;36.63
61537;BME280;48695;53.480;-6.300;2023-06-04T10:17:26;102034.25;;;26.20;36.75
61537;BME280;48695;53.480;-6.300;2023-06-04T10:19:53;102022.97;;;26.54;36.48
61537;BME280;48695;53.480;-6.300;2023-06-04T10:22:21;102038.41;;;26.89;36.03
61537;BME280;48695;53.480;-6.300;2023-06-04T10:24:47;102027.03;;;27.24;35.95
61537;BME280;48695;53.480;-6.300;2023-06-04T10:27:12;102028.22;;;27.56;35.49
61537;BME280;48695;53.480;-6.300;2023-06-04T10:29:38;102027.47;;;27.91;35.48
61537;BME280;48695;53.480;-6.300;2023-06-04T10:32:04;102039.34;;;28.24;34.61
61537;BME280;48695;53.480;-6.300;2023-06-04T10:34:29;102030.53;;;28.57;34.52
61537;BME280;48695;53.480;-6.300;2023-06-04T10:36:55;102040.34;;;28.91;34.24
61537;BME280;48695;53.480;-6.300;2023-06-04T10:39:29;102037.78;;;29.24;33.75
61537;BME280;48695;53.480;-6.300;2023-06-04T10:42:04;102043.78;;;29.61;33.44
61537;BME280;48695;53.480;-6.300;2023-06-04T10:44:30;102042.81;;;29.94;33.75
61537;BME280;48695;53.480;-6.300;2023-06-04T10:46:56;102050.03;;;30.26;33.24
61537;BME280;48695;53.480;-6.300;2023-06-04T10:49:28;102051.09;;;30.55;33.24
61537;BME280;48695;53.480;-6.300;2023-06-04T10:51:54;102048.47;;;30.86;32.91
61537;BME280;48695;53.480;-6.300;2023-06-04T10:54:24;102023.13;;;30.98;33.00
61537;BME280;48695;53.480;-6.300;2023-06-04T10:56:53;102049.44;;;31.46;31.82
61537;BME280;48695;53.480;-6.300;2023-06-04T10:59:21;102052.34;;;31.73;31.53
61537;BME280;48695;53.480;-6.300;2023-06-04T11:01:47;102052.38;;;32.02;31.96
61537;BME280;48695;53.480;-6.300;2023-06-04T11:04:22;102051.38;;;32.33;31.32
61537;BME280;48695;53.480;-6.300;2023-06-04T11:06:59;102047.63;;;32.63;30.92
61537;BME280;48695;53.480;-6.300;2023-06-04T11:09:26;102049.69;;;32.98;31.72
61537;BME280;48695;53.480;-6.300;2023-06-04T11:11:58;102052.56;;;33.24;30.69
61537;BME280;48695;53.480;-6.300;2023-06-04T11:14:24;102066.66;;;33.55;30.50
61537;BME280;48695;53.480;-6.300;2023-06-04T11:16:49;102064.59;;;33.85;30.84
61537;BME280;48695;53.480;-6.300;2023-06-04T11:19:14;102068.78;;;34.06;30.21
61537;BME280;48695;53.480;-6.300;2023-06-04T11:21:40;102063.00;;;34.27;29.76
61537;BME280;48695;53.480;-6.300;2023-06-04T11:24:06;102065.53;;;34.47;29.30
61537;BME280;48695;53.480;-6.300;2023-06-04T11:26:34;102066.72;;;34.70;29.03
61537;BME280;48695;53.480;-6.300;2023-06-04T11:29:00;102066.59;;;34.98;29.25
61537;BME280;48695;53.480;-6.300;2023-06-04T11:31:26;102063.97;;;35.22;28.39
61537;BME280;48695;53.480;-6.300;2023-06-04T11:33:51;102059.69;;;35.46;29.45
61537;BME280;48695;53.480;-6.300;2023-06-04T11:36:23;102061.44;;;35.71;29.03
61537;BME280;48695;53.480;-6.300;2023-06-04T11:38:54;102061.50;;;35.96;28.35
61537;BME280;48695;53.480;-6.300;2023-06-04T11:41:20;102064.56;;;36.17;28.29
61537;BME280;48695;53.480;-6.300;2023-06-04T11:43:48;102066.59;;;36.31;27.85
61537;BME280;48695;53.480;-6.300;2023-06-04T11:46:14;102060.81;;;36.34;26.85
61537;BME280;48695;53.480;-6.300;2023-06-04T11:48:39;102065.06;;;36.37;26.49
61537;BME280;48695;53.480;-6.300;2023-06-04T11:51:06;102068.66;;;36.46;26.03
61537;BME280;48695;53.480;-6.300;2023-06-04T11:53:32;102065.59;;;36.57;26.88
61537;BME280;48695;53.480;-6.300;2023-06-04T11:55:58;102065.25;;;36.60;25.95
61537;BME280;48695;53.480;-6.300;2023-06-04T11:58:23;102071.03;;;36.57;25.94
61537;BME280;48695;53.480;-6.300;2023-06-04T12:00:48;102052.16;;;36.55;25.53
61537;BME280;48695;53.480;-6.300;2023-06-04T12:03:14;102061.13;;;36.64;25.40
61537;BME280;48695;53.480;-6.300;2023-06-04T12:05:39;102058.56;;;36.79;25.11
61537;BME280;48695;53.480;-6.300;2023-06-04T12:08:08;102059.03;;;36.99;25.54
61537;BME280;48695;53.480;-6.300;2023-06-04T12:10:38;102058.31;;;37.13;24.82
61537;BME280;48695;53.480;-6.300;2023-06-04T12:13:03;102048.03;;;37.23;24.24
61537;BME280;48695;53.480;-6.300;2023-06-04T12:15:29;102052.41;;;37.40;25.15
61537;BME280;48695;53.480;-6.300;2023-06-04T12:17:54;102052.63;;;37.62;24.42
61537;BME280;48695;53.480;-6.300;2023-06-04T12:20:35;102056.22;;;37.85;24.48
61537;BME280;48695;53.480;-6.300;2023-06-04T12:23:02;102051.53;;;38.17;24.08
61537;BME280;48695;53.480;-6.300;2023-06-04T12:25:28;102050.63;;;38.48;25.03
61537;BME280;48695;53.480;-6.300;2023-06-04T12:27:53;102062.28;;;38.71;24.67
61537;BME280;48695;53.480;-6.300;2023-06-04T12:30:19;102052.63;;;38.83;23.92
61537;BME280;48695;53.480;-6.300;2023-06-04T12:32:44;102051.41;;;39.01;23.74
61537;BME280;48695;53.480;-6.300;2023-06-04T12:35:10;102047.91;;;39.22;23.79
61537;BME280;48695;53.480;-6.300;2023-06-04T12:37:35;102054.53;;;39.49;24.37
61537;BME280;48695;53.480;-6.300;2023-06-04T12:40:01;102051.84;;;39.70;23.32
61537;BME280;48695;53.480;-6.300;2023-06-04T12:42:26;102050.53;;;39.87;23.13
61537;BME280;48695;53.480;-6.300;2023-06-04T12:44:53;102062.53;;;40.08;22.80